sensor_id;sensor_type;location;lat;lon;timestamp;pressure;altitude;pressure_sealevel;temperature;humidity
27643;BME280;15053;48.618;10.024;2023-02-10T00:02:18;95889.59;;;-2.63;69.53
27643;BME280;15053;48.618;10.024;2023-02-10T00:04:44;95887.22;;;-2.64;69.60
27643;BME280;15053;48.618;10.024;2023-02-10T00:07:11;95892.75;;;-2.61;70.25
27643;BME280;15053;48.618;10.024;2023-02-10T00:09:37;95888.59;;;-2.54;70.02
27643;BME280;15053;48.618;10.024;2023-02-10T00:12:04;95888.28;;;-2.51;70.23
27643;BME280;15053;48.618;10.024;2023-02-10T00:14:30;95890.16;;;-2.45;70.39
27643;BME280;15053;48.618;10.024;2023-02-10T00:16:57;95886.03;;;-2.46;69.84
27643;BME280;15053;48.618;10.024;2023-02-10T00:19:25;95886.53;;;-2.50;70.05
27643;BME280;15053;48.618;10.024;2023-02-10T00:21:52;95887.94;;;-2.48;69.46
27643;BME280;15053;48.618;10.024;2023-02-10T00:24:20;95900.06;;;-2.50;69.56
27643;BME280;15053;48.618;10.024;2023-02-10T00:26:47;95903.91;;;-2.54;69.25
27643;BME280;15053;48.618;10.024;2023-02-10T00:29:14;95902.81;;;-2.59;69.34
27643;BME280;15053;48.618;10.024;2023-02-10T00:31:41;95901.38;;;-2.62;69.23
27643;BME280;15053;48.618;10.024;2023-02-10T00:34:13;95893.13;;;-2.64;69.40
27643;BME280;15053;48.618;10.024;2023-02-10T00:36:40;95905.38;;;-2.67;69.43
27643;BME280;15053;48.618;10.024;2023-02-10T00:39:07;95904.91;;;-2.71;69.53
27643;BME280;15053;48.618;10.024;2023-02-10T00:41:37;95905.53;;;-2.69;69.94
27643;BME280;15053;48.618;10.024;2023-02-10T00:44:04;95914.78;;;-2.68;70.12
27643;BME280;15053;48.618;10.024;2023-02-10T00:46:30;95910.97;;;-2.64;70.15
27643;BME280;15053;48.618;10.024;2023-02-10T00:48:57;95908.84;;;-2.60;70.76
27643;BME280;15053;48.618;10.024;2023-02-10T00:51:23;95919.19;;;-2.54;70.85
27643;BME280;15053;48.618;10.024;2023-02-10T00:53:50;95905.16;;;-2.50;71.05
27643;BME280;15053;48.618;10.024;2023-02-10T00:56:18;95903.88;;;-2.46;71.13
27643;BME280;15053;48.618;10.024;2023-02-10T00:58:46;95905.13;;;-2.42;70.81
27643;BME280;15053;48.618;10.024;2023-02-10T01:01:13;95902.56;;;-2.42;71.18
27643;BME280;15053;48.618;10.024;2023-02-10T01:03:39;95907.66;;;-2.42;70.68
27643;BME280;15053;48.618;10.024;2023-02-10T01:06:06;95911.34;;;-2.44;70.16
27643;BME280;15053;48.618;10.024;2023-02-10T01:08:34;95908.69;;;-2.51;70.37
27643;BME280;15053;48.618;10.024;2023-02-10T01:11:06;95911.59;;;-2.62;69.75
27643;BME280;15053;48.618;10.024;2023-02-10T01:13:34;95908.09;;;-2.69;70.06
27643;BME280;15053;48.618;10.024;2023-02-10T01:16:06;95914.94;;;-2.77;69.87
27643;BME280;15053;48.618;10.024;2023-02-10T01:18:36;95924.03;;;-2.83;70.33
27643;BME280;15053;48.618;10.024;2023-02-10T01:21:21;95909.56;;;-2.82;70.44
27643;BME280;15053;48.618;10.024;2023-02-10T01:23:47;95917.69;;;-2.79;70.67
27643;BME280;15053;48.618;10.024;2023-02-10T01:26:15;95922.59;;;-2.77;70.66
27643;BME280;15053;48.618;10.024;2023-02-10T01:28:42;95917.19;;;-2.74;70.90
27643;BME280;15053;48.618;10.024;2023-02-10T01:31:12;95920.72;;;-2.75;70.74
27643;BME280;15053;48.618;10.024;2023-02-10T01:33:39;95918.63;;;-2.80;71.08
27643;BME280;15053;48.618;10.024;2023-02-10T01:36:13;95923.91;;;-2.81;70.63
27643;BME280;15053;48.618;10.024;2023-02-10T01:38:41;95923.41;;;-2.85;70.45
27643;BME280;15053;48.618;10.024;2023-02-10T01:41:08;95921.19;;;-2.88;70.98
27643;BME280;15053;48.618;10.024;2023-02-10T01:43:54;95928.84;;;-2.96;70.47
27643;BME280;15053;48.618;10.024;2023-02-10T01:46:21;95924.91;;;-3.07;70.52
27643;BME280;15053;48.618;10.024;2023-02-10T01:48:48;95931.13;;;-3.17;70.44
27643;BME280;15053;48.618;10.024;2023-02-10T01:51:15;95931.13;;;-3.25;70.14
27643;BME280;15053;48.618;10.024;2023-02-10T01:53:44;95923.19;;;-3.30;69.73
27643;BME280;15053;48.618;10.024;2023-02-10T01:56:12;95921.25;;;-3.36;70.26
27643;BME280;15053;48.618;10.024;2023-02-10T01:58:40;95917.78;;;-3.35;70.70
27643;BME280;15053;48.618;10.024;2023-02-10T02:01:07;95924.59;;;-3.28;70.58
27643;BME280;15053;48.618;10.024;2023-02-10T02:03:34;95910.25;;;-3.21;70.68
27643;BME280;15053;48.618;10.024;2023-02-10T02:06:02;95915.34;;;-3.13;71.13
27643;BME280;15053;48.618;10.024;2023-02-10T02:08:30;95916.63;;;-3.09;71.31
27643;BME280;15053;48.618;10.024;2023-02-10T02:16:38;95919.16;;;-3.01;70.91
27643;BME280;15053;48.618;10.024;2023-02-10T02:19:40;95919.78;;;-2.99;71.32
27643;BME280;15053;48.618;10.024;2023-02-10T02:25:09;95910.06;;;-2.95;71.20
27643;BME280;15053;48.618;10.024;2023-02-10T02:30:43;95902.25;;;-2.93;71.82
27643;BME280;15053;48.618;10.024;2023-02-10T02:36:00;95905.28;;;-2.90;71.65
27643;BME280;15053;48.618;10.024;2023-02-10T02:38:27;95892.22;;;-2.87;71.93
27643;BME280;15053;48.618;10.024;2023-02-10T02:40:53;95903.66;;;-2.83;71.97
27643;BME280;15053;48.618;10.024;2023-02-10T02:43:22;95898.09;;;-2.78;71.91
27643;BME280;15053;48.618;10.024;2023-02-10T02:46:05;95906.53;;;-2.78;72.07
27643;BME280;15053;48.618;10.024;2023-02-10T02:56:50;95917.09;;;-2.97;71.24
27643;BME280;15053;48.618;10.024;2023-02-10T02:59:53;95923.47;;;-3.01;71.28
27643;BME280;15053;48.618;10.024;2023-02-10T03:02:27;95932.53;;;-3.07;70.80
27643;BME280;15053;48.618;10.024;2023-02-10T03:04:55;95931.13;;;-3.17;70.78
27643;BME280;15053;48.618;10.024;2023-02-10T03:07:23;95937.03;;;-3.33;70.60
27643;BME280;15053;48.618;10.024;2023-02-10T03:09:50;95930.81;;;-3.46;70.26
27643;BME280;15053;48.618;10.024;2023-02-10T03:12:17;95935.56;;;-3.51;70.50
27643;BME280;15053;48.618;10.024;2023-02-10T03:14:43;95940.66;;;-3.60;70.60
27643;BME280;15053;48.618;10.024;2023-02-10T03:17:10;95938.41;;;-3.71;69.80
27643;BME280;15053;48.618;10.024;2023-02-10T03:19:36;95943.81;;;-3.82;69.90
27643;BME280;15053;48.618;10.024;2023-02-10T03:22:03;95950.34;;;-3.87;69.90
27643;BME280;15053;48.618;10.024;2023-02-10T03:24:29;95955.88;;;-3.92;70.03
27643;BME280;15053;48.618;10.024;2023-02-10T03:26:56;95953.50;;;-3.93;70.74
27643;BME280;15053;48.618;10.024;2023-02-10T03:29:22;95955.25;;;-3.94;70.66
27643;BME280;15053;48.618;10.024;2023-02-10T03:31:50;95953.34;;;-3.92;70.76
27643;BME280;15053;48.618;10.024;2023-02-10T03:34:16;95945.41;;;-3.89;71.13
27643;BME280;15053;48.618;10.024;2023-02-10T03:36:43;95952.25;;;-3.81;72.03
27643;BME280;15053;48.618;10.024;2023-02-10T03:39:09;95958.31;;;-3.74;72.14
27643;BME280;15053;48.618;10.024;2023-02-10T03:41:36;95956.41;;;-3.72;72.10
27643;BME280;15053;48.618;10.024;2023-02-10T03:44:02;95952.75;;;-3.70;72.57
27643;BME280;15053;48.618;10.024;2023-02-10T03:46:29;95956.72;;;-3.67;71.85
27643;BME280;15053;48.618;10.024;2023-02-10T03:48:55;95964.03;;;-3.64;71.66
27643;BME280;15053;48.618;10.024;2023-02-10T03:51:22;95972.31;;;-3.62;71.96
27643;BME280;15053;48.618;10.024;2023-02-10T03:53:49;95962.00;;;-3.61;71.74
27643;BME280;15053;48.618;10.024;2023-02-10T03:56:15;95961.69;;;-3.58;71.95
27643;BME280;15053;48.618;10.024;2023-02-10T03:58:41;95970.44;;;-3.52;72.51
27643;BME280;15053;48.618;10.024;2023-02-10T04:01:10;95979.03;;;-3.45;72.72
27643;BME280;15053;48.618;10.024;2023-02-10T04:03:36;95980.78;;;-3.37;73.03
27643;BME280;15053;48.618;10.024;2023-02-10T04:06:03;95976.66;;;-3.30;73.47
27643;BME280;15053;48.618;10.024;2023-02-10T04:08:29;95984.75;;;-3.27;73.42
27643;BME280;15053;48.618;10.024;2023-02-10T04:10:56;95977.13;;;-3.27;73.45
27643;BME280;15053;48.618;10.024;2023-02-10T04:13:22;95979.53;;;-3.25;73.49
27643;BME280;15053;48.618;10.024;2023-02-10T04:16:01;95978.41;;;-3.23;73.09
27643;BME280;15053;48.618;10.024;2023-02-10T04:18:28;95973.94;;;-3.21;73.00
27643;BME280;15053;48.618;10.024;2023-02-10T04:20:54;95978.72;;;-3.18;73.60
27643;BME280;15053;48.618;10.024;2023-02-10T04:23:21;95978.56;;;-3.16;73.45
27643;BME280;15053;48.618;10.024;2023-02-10T04:25:47;95977.28;;;-3.20;73.57
27643;BME280;15053;48.618;10.024;2023-02-10T04:28:14;95972.50;;;-3.23;73.47
27643;BME280;15053;48.618;10.024;2023-02-10T04:30:41;95975.69;;;-3.21;73.54
27643;BME280;15053;48.618;10.024;2023-02-10T04:33:07;95972.19;;;-3.20;73.99
27643;BME280;15053;48.618;10.024;2023-02-10T04:35:33;95972.19;;;-3.20;73.94
27643;BME280;15053;48.618;10.024;2023-02-10T04:38:00;95980.16;;;-3.23;73.62
27643;BME280;15053;48.618;10.024;2023-02-10T04:40:30;95983.31;;;-3.29;73.62
27643;BME280;15053;48.618;10.024;2023-02-10T04:42:56;95974.75;;;-3.36;73.25
27643;BME280;15053;48.618;10.024;2023-02-10T04:45:23;95983.00;;;-3.42;73.33
27643;BME280;15053;48.618;10.024;2023-02-10T04:47:49;95986.03;;;-3.47;73.57
27643;BME280;15053;48.618;10.024;2023-02-10T04:50:16;95987.16;;;-3.49;72.99
27643;BME280;15053;48.618;10.024;2023-02-10T04:52:42;95988.88;;;-3.50;73.20
27643;BME280;15053;48.618;10.024;2023-02-10T04:55:09;95991.91;;;-3.54;73.05
27643;BME280;15053;48.618;10.024;2023-02-10T04:57:35;95991.72;;;-3.61;73.64
27643;BME280;15053;48.618;10.024;2023-02-10T05:00:03;96000.31;;;-3.62;72.79
27643;BME280;15053;48.618;10.024;2023-02-10T05:02:31;95994.91;;;-3.59;72.92
27643;BME280;15053;48.618;10.024;2023-02-10T05:04:57;96000.00;;;-3.59;73.13
27643;BME280;15053;48.618;10.024;2023-02-10T05:07:24;95992.06;;;-3.56;73.61
27643;BME280;15053;48.618;10.024;2023-02-10T05:09:50;95988.25;;;-3.52;73.41
27643;BME280;15053;48.618;10.024;2023-02-10T05:12:16;95991.94;;;-3.46;74.00
27643;BME280;15053;48.618;10.024;2023-02-10T05:14:43;95984.91;;;-3.44;74.03
27643;BME280;15053;48.618;10.024;2023-02-10T05:17:09;95988.91;;;-3.42;73.89
27643;BME280;15053;48.618;10.024;2023-02-10T05:19:36;95995.28;;;-3.38;74.04
27643;BME280;15053;48.618;10.024;2023-02-10T05:22:02;96004.00;;;-3.40;73.75
27643;BME280;15053;48.618;10.024;2023-02-10T05:24:29;96003.69;;;-3.45;73.47
27643;BME280;15053;48.618;10.024;2023-02-10T05:26:55;96007.97;;;-3.46;73.57
27643;BME280;15053;48.618;10.024;2023-02-10T05:29:22;96011.16;;;-3.52;73.14
27643;BME280;15053;48.618;10.024;2023-02-10T05:31:48;96003.97;;;-3.57;73.22
27643;BME280;15053;48.618;10.024;2023-02-10T05:34:15;96007.94;;;-3.62;72.92
27643;BME280;15053;48.618;10.024;2023-02-10T05:36:41;96010.97;;;-3.67;72.66
27643;BME280;15053;48.618;10.024;2023-02-10T05:39:10;96010.00;;;-3.74;72.82
27643;BME280;15053;48.618;10.024;2023-02-10T05:41:50;96016.66;;;-3.81;72.28
27643;BME280;15053;48.618;10.024;2023-02-10T05:44:17;96021.25;;;-3.84;73.17
27643;BME280;15053;48.618;10.024;2023-02-10T05:46:44;96022.22;;;-3.85;72.76
27643;BME280;15053;48.618;10.024;2023-02-10T05:49:11;96023.31;;;-3.88;72.85
27643;BME280;15053;48.618;10.024;2023-02-10T05:51:37;96023.31;;;-3.88;73.18
27643;BME280;15053;48.618;10.024;2023-02-10T05:54:04;96023.31;;;-3.88;73.12
27643;BME280;15053;48.618;10.024;2023-02-10T05:56:30;96023.63;;;-3.91;73.39
27643;BME280;15053;48.618;10.024;2023-02-10T05:58:57;96034.59;;;-3.90;73.21
27643;BME280;15053;48.618;10.024;2023-02-10T06:01:24;96030.63;;;-3.93;73.47
27643;BME280;15053;48.618;10.024;2023-02-10T06:03:50;96037.88;;;-3.98;73.05
27643;BME280;15053;48.618;10.024;2023-02-10T06:06:16;96029.63;;;-4.00;73.63
27643;BME280;15053;48.618;10.024;2023-02-10T06:08:43;96036.63;;;-4.02;73.46
27643;BME280;15053;48.618;10.024;2023-02-10T06:11:09;96042.81;;;-4.04;73.82
27643;BME280;15053;48.618;10.024;2023-02-10T06:13:36;96039.47;;;-4.05;73.27
27643;BME280;15053;48.618;10.024;2023-02-10T06:16:03;96039.13;;;-4.10;73.29
27643;BME280;15053;48.618;10.024;2023-02-10T06:18:32;96048.19;;;-4.07;73.89
27643;BME280;15053;48.618;10.024;2023-02-10T06:20:59;96046.44;;;-4.15;73.25
27643;BME280;15053;48.618;10.024;2023-02-10T06:23:25;96047.56;;;-4.09;74.21
27643;BME280;15053;48.618;10.024;2023-02-10T06:25:52;96042.94;;;-4.06;74.54
27643;BME280;15053;48.618;10.024;2023-02-10T06:28:24;96048.38;;;-4.01;74.71
27643;BME280;15053;48.618;10.024;2023-02-10T06:30:51;96047.94;;;-3.96;74.33
27643;BME280;15053;48.618;10.024;2023-02-10T06:33:17;96044.41;;;-3.95;74.95
27643;BME280;15053;48.618;10.024;2023-02-10T06:35:44;96055.44;;;-3.87;74.79
27643;BME280;15053;48.618;10.024;2023-02-10T06:38:10;96057.03;;;-3.86;74.86
27643;BME280;15053;48.618;10.024;2023-02-10T06:40:37;96047.03;;;-3.87;74.10
27643;BME280;15053;48.618;10.024;2023-02-10T06:43:04;96053.56;;;-3.85;74.95
27643;BME280;15053;48.618;10.024;2023-02-10T06:45:32;96055.75;;;-3.82;74.39
27643;BME280;15053;48.618;10.024;2023-02-10T06:47:59;96059.59;;;-3.78;74.51
27643;BME280;15053;48.618;10.024;2023-02-10T06:50:26;96067.56;;;-3.73;74.69
27643;BME280;15053;48.618;10.024;2023-02-10T06:52:52;96073.66;;;-3.66;74.92
27643;BME280;15053;48.618;10.024;2023-02-10T06:55:19;96072.53;;;-3.63;74.21
27643;BME280;15053;48.618;10.024;2023-02-10T06:57:45;96080.31;;;-3.65;74.08
27643;BME280;15053;48.618;10.024;2023-02-10T07:00:13;96082.22;;;-3.67;74.29
27643;BME280;15053;48.618;10.024;2023-02-10T07:02:40;96081.41;;;-3.75;74.18
27643;BME280;15053;48.618;10.024;2023-02-10T07:05:07;96097.81;;;-3.70;73.42
27643;BME280;15053;48.618;10.024;2023-02-10T07:07:35;96098.41;;;-3.76;73.45
27643;BME280;15053;48.618;10.024;2023-02-10T07:10:02;96099.00;;;-3.82;73.06
27643;BME280;15053;48.618;10.024;2023-02-10T07:12:28;96099.81;;;-3.81;73.08
27643;BME280;15053;48.618;10.024;2023-02-10T07:14:54;96091.38;;;-3.82;72.71
27643;BME280;15053;48.618;10.024;2023-02-10T07:17:21;96094.59;;;-3.80;73.54
27643;BME280;15053;48.618;10.024;2023-02-10T07:19:47;96089.84;;;-3.75;72.96
27643;BME280;15053;48.618;10.024;2023-02-10T07:22:14;96088.94;;;-3.66;73.59
27643;BME280;15053;48.618;10.024;2023-02-10T07:24:40;96098.16;;;-3.57;73.69
27643;BME280;15053;48.618;10.024;2023-02-10T07:27:07;96105.81;;;-3.48;74.27
27643;BME280;15053;48.618;10.024;2023-02-10T07:29:33;96100.75;;;-3.40;74.42
27643;BME280;15053;48.618;10.024;2023-02-10T07:32:00;96095.69;;;-3.32;74.60
27643;BME280;15053;48.618;10.024;2023-02-10T07:34:27;96099.53;;;-3.20;74.30
27643;BME280;15053;48.618;10.024;2023-02-10T07:36:53;96107.69;;;-3.09;74.96
27643;BME280;15053;48.618;10.024;2023-02-10T07:39:21;96094.97;;;-3.01;75.18
27643;BME280;15053;48.618;10.024;2023-02-10T07:41:48;96102.44;;;-2.91;75.02
27643;BME280;15053;48.618;10.024;2023-02-10T07:44:14;96102.63;;;-2.84;75.04
27643;BME280;15053;48.618;10.024;2023-02-10T07:46:41;96103.41;;;-2.76;75.02
27643;BME280;15053;48.618;10.024;2023-02-10T07:49:08;96104.06;;;-2.66;74.85
27643;BME280;15053;48.618;10.024;2023-02-10T07:51:34;96091.00;;;-2.63;75.13
27643;BME280;15053;48.618;10.024;2023-02-10T07:54:01;96109.50;;;-2.45;75.06
27643;BME280;15053;48.618;10.024;2023-02-10T07:56:27;96112.66;;;-2.34;75.04
27643;BME280;15053;48.618;10.024;2023-02-10T07:58:54;96114.88;;;-2.23;75.25
27643;BME280;15053;48.618;10.024;2023-02-10T08:01:20;96121.38;;;-2.13;75.25
27643;BME280;15053;48.618;10.024;2023-02-10T08:03:46;96132.06;;;-2.01;75.32
27643;BME280;15053;48.618;10.024;2023-02-10T08:06:18;96128.38;;;-1.91;75.44
27643;BME280;15053;48.618;10.024;2023-02-10T08:08:45;96126.13;;;-1.86;74.89
27643;BME280;15053;48.618;10.024;2023-02-10T08:11:11;96115.91;;;-1.86;75.05
27643;BME280;15053;48.618;10.024;2023-02-10T08:13:38;96118.94;;;-1.82;75.33
27643;BME280;15053;48.618;10.024;2023-02-10T08:16:05;96119.84;;;-1.75;75.29
27643;BME280;15053;48.618;10.024;2023-02-10T08:18:34;96127.50;;;-1.67;75.76
27643;BME280;15053;48.618;10.024;2023-02-10T08:21:01;96120.28;;;-1.55;75.33
27643;BME280;15053;48.618;10.024;2023-02-10T08:23:27;96122.78;;;-1.47;74.99
27643;BME280;15053;48.618;10.024;2023-02-10T08:25:53;96124.34;;;-1.38;75.76
27643;BME280;15053;48.618;10.024;2023-02-10T08:28:20;96119.84;;;-1.28;75.24
27643;BME280;15053;48.618;10.024;2023-02-10T08:30:46;96120.06;;;-1.15;75.02
27643;BME280;15053;48.618;10.024;2023-02-10T08:33:13;96118.94;;;-1.04;75.02
27643;BME280;15053;48.618;10.024;2023-02-10T08:35:40;96125.41;;;-0.94;75.53
27643;BME280;15053;48.618;10.024;2023-02-10T08:38:07;96114.59;;;-0.81;74.99
27643;BME280;15053;48.618;10.024;2023-02-10T08:40:35;96128.41;;;-0.68;74.83
27643;BME280;15053;48.618;10.024;2023-02-10T08:43:02;96121.94;;;-0.55;75.04
27643;BME280;15053;48.618;10.024;2023-02-10T08:45:28;96114.03;;;-0.46;74.91
27643;BME280;15053;48.618;10.024;2023-02-10T08:47:55;96126.41;;;-0.35;74.44
27643;BME280;15053;48.618;10.024;2023-02-10T08:50:21;96119.66;;;-0.28;74.54
27643;BME280;15053;48.618;10.024;2023-02-10T08:52:48;96131.38;;;-0.19;74.56
27643;BME280;15053;48.618;10.024;2023-02-10T08:55:15;96126.81;;;-0.09;74.18
27643;BME280;15053;48.618;10.024;2023-02-10T08:57:41;96131.53;;;0.03;nan
27643;BME280;15053;48.618;10.024;2023-02-10T09:00:08;96134.97;;;0.10;74.16
27643;BME280;15053;48.618;10.024;2023-02-10T09:02:35;96129.41;;;0.21;73.27
27643;BME280;15053;48.618;10.024;2023-02-10T09:05:02;96132.13;;;0.34;73.41
27643;BME280;15053;48.618;10.024;2023-02-10T09:07:36;96131.53;;;0.46;73.31
27643;BME280;15053;48.618;10.024;2023-02-10T09:10:03;96132.66;;;0.58;72.35
27643;BME280;15053;48.618;10.024;2023-02-10T09:12:29;96137.16;;;0.71;72.43
27643;BME280;15053;48.618;10.024;2023-02-10T09:14:55;96120.28;;;0.77;71.61
27643;BME280;15053;48.618;10.024;2023-02-10T09:17:22;96126.97;;;0.92;71.64
27643;BME280;15053;48.618;10.024;2023-02-10T09:19:48;96124.88;;;1.02;70.61
27643;BME280;15053;48.618;10.024;2023-02-10T09:22:15;96127.97;;;1.12;70.40
27643;BME280;15053;48.618;10.024;2023-02-10T09:24:42;96131.84;;;1.23;70.23
27643;BME280;15053;48.618;10.024;2023-02-10T09:27:13;96130.56;;;1.34;69.63
27643;BME280;15053;48.618;10.024;2023-02-10T09:29:41;96127.25;;;1.40;69.72
27643;BME280;15053;48.618;10.024;2023-02-10T09:32:07;96133.84;;;1.49;69.35
27643;BME280;15053;48.618;10.024;2023-02-10T09:34:34;96136.66;;;1.54;68.33
27643;BME280;15053;48.618;10.024;2023-02-10T09:37:00;96145.56;;;1.58;68.62
27643;BME280;15053;48.618;10.024;2023-02-10T09:39:29;96131.94;;;1.57;67.21
27643;BME280;15053;48.618;10.024;2023-02-10T09:42:46;96139.94;;;1.69;67.87
27643;BME280;15053;48.618;10.024;2023-02-10T09:45:25;96141.41;;;1.78;66.91
27643;BME280;15053;48.618;10.024;2023-02-10T09:48:00;96139.91;;;1.90;66.94
27643;BME280;15053;48.618;10.024;2023-02-10T09:50:36;96143.22;;;2.05;66.98
27643;BME280;15053;48.618;10.024;2023-02-10T09:53:12;96141.53;;;2.19;65.93
27643;BME280;15053;48.618;10.024;2023-02-10T09:55:43;96138.44;;;2.30;65.55
27643;BME280;15053;48.618;10.024;2023-02-10T09:58:24;96129.81;;;2.44;65.21
27643;BME280;15053;48.618;10.024;2023-02-10T10:01:21;96136.63;;;2.65;65.15
27643;BME280;15053;48.618;10.024;2023-02-10T10:06:38;96142.28;;;2.88;63.94
27643;BME280;15053;48.618;10.024;2023-02-10T10:11:42;96143.72;;;3.04;62.95
27643;BME280;15053;48.618;10.024;2023-02-10T10:14:27;96141.59;;;3.20;62.35
27643;BME280;15053;48.618;10.024;2023-02-10T10:25:41;96153.78;;;3.85;60.67
27643;BME280;15053;48.618;10.024;2023-02-10T10:36:35;96151.78;;;4.33;56.76
27643;BME280;15053;48.618;10.024;2023-02-10T10:39:25;96149.56;;;4.43;56.67
27643;BME280;15053;48.618;10.024;2023-02-10T10:41:55;96150.56;;;4.49;55.80
27643;BME280;15053;48.618;10.024;2023-02-10T10:44:24;96143.59;;;4.62;56.06
27643;BME280;15053;48.618;10.024;2023-02-10T10:47:00;96138.78;;;4.79;55.56
27643;BME280;15053;48.618;10.024;2023-02-10T10:49:29;96132.00;;;4.91;54.80
27643;BME280;15053;48.618;10.024;2023-02-10T10:51:56;96129.13;;;5.06;54.89
27643;BME280;15053;48.618;10.024;2023-02-10T10:54:23;96122.50;;;5.23;54.05
27643;BME280;15053;48.618;10.024;2023-02-10T10:56:53;96113.09;;;5.35;52.91
27643;BME280;15053;48.618;10.024;2023-02-10T10:59:43;96108.84;;;5.47;51.96
27643;BME280;15053;48.618;10.024;2023-02-10T11:02:21;96111.78;;;5.57;52.63
27643;BME280;15053;48.618;10.024;2023-02-10T11:05:20;96103.28;;;5.75;51.51
27643;BME280;15053;48.618;10.024;2023-02-10T11:07:50;96093.66;;;5.88;51.81
27643;BME280;15053;48.618;10.024;2023-02-10T11:10:31;96093.97;;;5.99;50.58
27643;BME280;15053;48.618;10.024;2023-02-10T11:12:59;96091.28;;;6.12;49.31
27643;BME280;15053;48.618;10.024;2023-02-10T11:15:42;96095.75;;;6.23;49.77
27643;BME280;15053;48.618;10.024;2023-02-10T11:18:18;96090.16;;;6.26;49.33
27643;BME280;15053;48.618;10.024;2023-02-10T11:21:07;96091.38;;;6.41;48.61
27643;BME280;15053;48.618;10.024;2023-02-10T11:23:48;96079.59;;;6.45;47.62
27643;BME280;15053;48.618;10.024;2023-02-10T11:26:16;96082.38;;;6.62;47.87
27643;BME280;15053;48.618;10.024;2023-02-10T11:28:43;96086.13;;;6.66;46.98
27643;BME280;15053;48.618;10.024;2023-02-10T11:31:25;96088.78;;;6.78;47.23
27643;BME280;15053;48.618;10.024;2023-02-10T11:33:57;96090.97;;;6.92;47.30
27643;BME280;15053;48.618;10.024;2023-02-10T11:36:34;96080.91;;;7.02;46.32
27643;BME280;15053;48.618;10.024;2023-02-10T11:39:04;96084.59;;;7.25;46.35
27643;BME280;15053;48.618;10.024;2023-02-10T11:41:32;96092.06;;;7.33;45.47
27643;BME280;15053;48.618;10.024;2023-02-10T11:44:00;96082.16;;;7.41;45.05
27643;BME280;15053;48.618;10.024;2023-02-10T11:46:30;96077.34;;;7.56;46.19
27643;BME280;15053;48.618;10.024;2023-02-10T11:48:59;96075.47;;;7.63;45.09
27643;BME280;15053;48.618;10.024;2023-02-10T11:51:28;96072.31;;;7.73;45.55
27643;BME280;15053;48.618;10.024;2023-02-10T11:53:56;96080.91;;;7.85;44.82
27643;BME280;15053;48.618;10.024;2023-02-10T11:56:36;96076.94;;;7.94;45.24
27643;BME280;15053;48.618;10.024;2023-02-10T11:59:45;96083.38;;;8.03;44.73
27643;BME280;15053;48.618;10.024;2023-02-10T12:02:59;96077.84;;;8.11;44.65
27643;BME280;15053;48.618;10.024;2023-02-10T12:08:28;96072.78;;;8.16;43.76
27643;BME280;15053;48.618;10.024;2023-02-10T12:11:04;96062.88;;;8.37;43.98
27643;BME280;15053;48.618;10.024;2023-02-10T12:13:54;96066.91;;;8.56;42.79
27643;BME280;15053;48.618;10.024;2023-02-10T12:19:39;96058.44;;;9.00;43.47
27643;BME280;15053;48.618;10.024;2023-02-10T12:25:46;96047.16;;;9.39;42.49
27643;BME280;15053;48.618;10.024;2023-02-10T12:28:12;96054.06;;;9.34;41.95
27643;BME280;15053;48.618;10.024;2023-02-10T12:39:40;96062.41;;;9.47;41.53
27643;BME280;15053;48.618;10.024;2023-02-10T12:42:30;96060.56;;;9.48;41.12
27643;BME280;15053;48.618;10.024;2023-02-10T12:45:05;96063.41;;;9.46;41.27
27643;BME280;15053;48.618;10.024;2023-02-10T12:50:20;96048.50;;;9.59;40.53
27643;BME280;15053;48.618;10.024;2023-02-10T12:52:56;96047.03;;;9.63;40.05
27643;BME280;15053;48.618;10.024;2023-02-10T12:55:50;96043.47;;;9.69;40.20
27643;BME280;15053;48.618;10.024;2023-02-10T12:58:27;96035.13;;;9.67;39.89
27643;BME280;15053;48.618;10.024;2023-02-10T13:03:34;96031.41;;;9.79;39.39
27643;BME280;15053;48.618;10.024;2023-02-10T13:06:20;96038.88;;;9.92;39.10
27643;BME280;15053;48.618;10.024;2023-02-10T13:09:11;96036.13;;;9.99;38.33
27643;BME280;15053;48.618;10.024;2023-02-10T13:14:45;96034.22;;;10.11;38.26
27643;BME280;15053;48.618;10.024;2023-02-10T13:17:14;96034.22;;;10.11;37.90
27643;BME280;15053;48.618;10.024;2023-02-10T13:19:56;96035.94;;;10.22;37.92
27643;BME280;15053;48.618;10.024;2023-02-10T13:25:46;96032.41;;;10.28;36.89
27643;BME280;15053;48.618;10.024;2023-02-10T13:30:55;96031.38;;;10.29;37.02
27643;BME280;15053;48.618;10.024;2023-02-10T13:36:09;96033.25;;;10.34;37.67
27643;BME280;15053;48.618;10.024;2023-02-10T13:38:37;96035.53;;;10.30;36.48
27643;BME280;15053;48.618;10.024;2023-02-10T13:41:05;96025.84;;;10.26;36.58
27643;BME280;15053;48.618;10.024;2023-02-10T13:43:55;96023.16;;;10.37;36.78
27643;BME280;15053;48.618;10.024;2023-02-10T13:46:27;96026.41;;;10.49;36.34
27643;BME280;15053;48.618;10.024;2023-02-10T13:48:57;96030.19;;;10.58;35.71
27643;BME280;15053;48.618;10.024;2023-02-10T13:51:34;96029.09;;;10.54;35.61
27643;BME280;15053;48.618;10.024;2023-02-10T13:54:02;96033.94;;;10.68;35.73
27643;BME280;15053;48.618;10.024;2023-02-10T13:56:30;96026.00;;;10.79;35.88
27643;BME280;15053;48.618;10.024;2023-02-10T13:59:00;96032.38;;;10.93;35.63
27643;BME280;15053;48.618;10.024;2023-02-10T14:01:41;96032.69;;;10.97;35.56
27643;BME280;15053;48.618;10.024;2023-02-10T14:06:45;96026.69;;;10.96;35.09
27643;BME280;15053;48.618;10.024;2023-02-10T14:11:50;96033.75;;;10.96;35.70
27643;BME280;15053;48.618;10.024;2023-02-10T14:14:29;96027.53;;;11.02;35.58
27643;BME280;15053;48.618;10.024;2023-02-10T14:19:43;96033.78;;;11.01;35.75
27643;BME280;15053;48.618;10.024;2023-02-10T14:24:59;96034.06;;;10.56;35.35
27643;BME280;15053;48.618;10.024;2023-02-10T14:27:30;96039.19;;;10.29;35.43
27643;BME280;15053;48.618;10.024;2023-02-10T14:30:15;96035.41;;;10.03;35.81
27643;BME280;15053;48.618;10.024;2023-02-10T14:32:45;96029.34;;;10.15;36.73
27643;BME280;15053;48.618;10.024;2023-02-10T14:35:18;96035.31;;;10.32;36.69
27643;BME280;15053;48.618;10.024;2023-02-10T14:37:56;96030.66;;;10.34;36.31
27643;BME280;15053;48.618;10.024;2023-02-10T14:40:25;96036.47;;;10.41;36.07